ENTO/TRF METAR and TAF weather

Enter ICAO airport designator
Station Type Date Time Source
ENTO METAR 2018/01/19 22:50 UTC NOAA

ENTO 192250Z AUTO 12006KT 090V150 9999 OVC006/// M01/M01 Q1002


Station Type Date Time Source
ENTO Decoded METAR 2018/01/19 22:50 UTC NOAA

Torp, Norway (ENTO) 59-12N 010-16E 88M
Jan 19, 2018 - 05:50 PM EST / 2018.01.19 2250 UTC
Wind: from the ESE (120 degrees) at 7 MPH (6 KT) (direction variable):0
Visibility: greater than 7 mile(s):0
Sky conditions: overcast
Temperature: 30 F (-1 C)
Windchill: 23 F (-5 C):1
Dew Point: 30 F (-1 C)
Relative Humidity: 100%
Pressure (altimeter): 29.59 in. Hg (1002 hPa)
ob: ENTO 192250Z AUTO 12006KT 090V150 9999 OVC006/// M01/M01 Q1002
cycle: 23

Station Type Date Time Source
ENTO TAF 2018/01/19 18:59 UTC NOAA

TAF ENTO 191700Z 1918/2018 16008KT 8000 -SHSN SCT015TCU BKN020
TEMPO 1918/2018 0800 SHSN VV003


Example: see airport list